Time;durP1;ratioP1;P1;durP2;ratioP2;P2;SDS_P1;SDS_P2;PMS_P1;PMS_P2;Temp;Humidity;BMP_temperature;BMP_pressure;BME280_temperature;BME280_humidity;BME280_pressure;Samples;Min_cycle;Max_cycle;Signal;HPM_P1;HPM_P2
2022/03/22 00:01:14;;;;;;;;;;;;;;;;;;5055372;28;20292;-74
2022/03/22 00:03:46;;;;;;;;;;;;;;;;;;5054998;28;19920;-73
2022/03/22 00:06:13;;;;;;;;;;;;;;;;;;5055846;28;19994;-73
2022/03/22 00:08:43;;;;;;;;;;;;;;;;;;5055060;28;19948;-71
2022/03/22 00:11:11;;;;;;;;;;;;;;;;;;5055178;28;19967;-71
2022/03/22 00:13:39;;;;;;;;;;;;;;;;;;5055241;28;19921;-71
2022/03/22 00:16:07;;;;;;;;;;;;;;;;;;5058684;28;19920;-75
2022/03/22 00:18:55;;;;;;;;;;;;;;;;;;5074573;28;20010;-74
2022/03/22 00:21:22;;;;;;;;;;;;;;;;;;5074938;28;19995;-71
2022/03/22 00:23:57;;;;;;;;;;;;;;;;;;5074638;28;19924;-71
2022/03/22 00:26:24;;;;;;;;;;;;;;;;;;5074473;28;20015;-74
2022/03/22 00:28:53;;;;;;;;;;;;;;;;;;5074863;28;19951;-70
2022/03/22 00:31:23;;;;;;;;;;;;;;;;;;5073241;28;19931;-70
2022/03/22 00:33:53;;;;;;;;;;;;;;;;;;5074760;28;19925;-73
2022/03/22 00:36:20;;;;;;;;;;;;;;;;;;5075073;28;20003;-73
2022/03/22 00:38:48;;;;;;;;;;;;;;;;;;5073383;28;20011;-74
2022/03/22 00:41:17;;;;;;;;;;;;;;;;;;5074814;28;19975;-71
2022/03/22 00:43:45;;;;;;;205.73;185.77;;;;;;;;;;5073629;28;20831;-73
2022/03/22 00:46:13;;;;;;;;;;;;;;;;;;5075023;28;20150;-74
2022/03/22 00:48:42;;;;;;;;;;;;;;;;;;5073781;28;20720;-71
2022/03/22 00:51:09;;;;;;;;;;;;;;;;;;5074177;28;20005;-70
2022/03/22 00:53:40;;;;;;;;;;;;;;;;;;5072039;28;20424;-71
2022/03/22 00:56:08;;;;;;;;;;;;;;;;;;5074111;28;19920;-71
2022/03/22 00:58:35;;;;;;;;;;;;;;;;;;5074538;28;19920;-71
2022/03/22 01:01:03;;;;;;;;;;;;;;;;;;5073463;28;19924;-70
2022/03/22 01:03:30;;;;;;;;;;;;;;;;;;5072491;28;19952;-71
2022/03/22 01:05:59;;;;;;;;;;;;;;;;;;5073711;28;19928;-73
2022/03/22 01:08:34;;;;;;;;;;;;;;;;;;5073505;28;20295;-73
2022/03/22 01:11:03;;;;;;;;;;;;;;;;;;5074067;28;19927;-73
2022/03/22 01:13:32;;;;;;;;;;;;;;;;;;5073680;28;19920;-70
2022/03/22 01:16:00;;;;;;;;;;;;;;;;;;5072532;28;20362;-70
2022/03/22 01:18:35;;;;;;;;;;;;;;;;;;5073957;28;19920;-70
2022/03/22 01:21:02;;;;;;;;;;;;;;;;;;5072869;28;20364;-71
2022/03/22 01:23:37;;;;;;;;;;;;;;;;;;5072764;28;19921;-73
2022/03/22 01:26:06;;;;;;;;;;;;;;;;;;5073888;28;20854;-71
2022/03/22 01:28:34;;;;;;;;;;;;;;;;;;5073180;28;19924;-71
2022/03/22 01:31:01;;;;;;;;;;;;;;;;;;5068414;28;19920;-73
2022/03/22 01:33:29;;;;;;;;;;;;;;;;;;5064887;28;25050;-73
2022/03/22 01:35:56;;;;;;;;;;;;;;;;;;5073062;28;20520;-71
2022/03/22 01:38:25;;;;;;;;;;;;;;;;;;5072929;28;20487;-71
2022/03/22 01:40:52;;;;;;;;;;;;;;;;;;5073752;28;20419;-71
2022/03/22 01:43:20;;;;;;;;;;;;;;;;;;5073492;28;20003;-71
2022/03/22 01:45:49;;;;;;;;;;;;;;;;;;5073541;28;20410;-73
2022/03/22 01:48:16;;;;;;;;;;;;;;;;;;5072741;28;20031;-71
2022/03/22 01:50:46;;;;;;;29.70;27.95;;;;;;;;;;5070839;28;20498;-71
2022/03/22 01:53:13;;;;;;;;;;;;;;;;;;5067523;28;27107;-74
2022/03/22 01:55:41;;;;;;;;;;;;;;;;;;5069762;28;26426;-72
2022/03/22 01:58:09;;;;;;;;;;;;;;;;;;5072343;28;19929;-72
2022/03/22 02:00:36;;;;;;;;;;;;;;;;;;5072934;28;19925;-75
2022/03/22 02:05:57;;;;;;;;;;;;;;;;;;5088591;28;20018;-74
2022/03/22 02:08:29;;;;;;;12.27;11.48;;;;;;;;;;5092560;28;20475;-72
2022/03/22 02:10:59;;;;;;;3.70;3.60;;;;;;;;;;5092643;28;20494;-71
2022/03/22 02:13:27;;;;;;;;;;;;;;;;;;5093013;28;20119;-74
2022/03/22 02:15:55;;;;;;;;;;;;;;;;;;5092503;28;19932;-71
2022/03/22 02:18:24;;;;;;;;;;;;;;;;;;5092002;28;26522;-72
2022/03/22 02:20:52;;;;;;;1.33;1.33;;;;;;;;;;5092701;28;20424;-72
2022/03/22 02:23:20;;;;;;;;;;;;;;;;;;5092925;28;20221;-74
2022/03/22 02:25:49;;;;;;;;;;;;;;;;;;5093103;28;19939;-73
2022/03/22 02:28:17;;;;;;;;;;;;;;;;;;5092855;28;20468;-72
2022/03/22 02:30:45;;;;;;;;;;;;;;;;;;5086629;28;19932;-74
2022/03/22 02:33:15;;;;;;;;;;;;;;;;;;5085412;28;32635;-72
2022/03/22 02:35:43;;;;;;;;;;;;;;;;;;5093324;28;19939;-73
2022/03/22 02:38:12;;;;;;;;;;;;;;;;;;5092550;28;19963;-74
2022/03/22 02:40:39;;;;;;;;;;;;;;;;;;5091582;28;19936;-71
2022/03/22 02:43:08;;;;;;;;;;;;;;;;;;5091539;28;20502;-72
2022/03/22 02:45:35;;;;;;;;;;;;;;;;;;5093348;28;20365;-71
2022/03/22 02:48:03;;;;;;;;;;;;;;;;;;5092708;28;19937;-71
2022/03/22 02:50:31;;;;;;;;;;;;;;;;;;5092880;28;19947;-71
2022/03/22 02:53:00;;;;;;;;;;;;;;;;;;5093033;28;19944;-75
2022/03/22 02:55:28;;;;;;;;;;;;;;;;;;5092977;28;20357;-73
2022/03/22 02:57:55;;;;;;;;;;;;;;;;;;5093084;28;19927;-72
2022/03/22 03:03:10;;;;;;;;;;;;;;;;;;5096657;28;19924;-72
2022/03/22 03:05:38;;;;;;;;;;;;;;;;;;5083827;28;20030;-73
2022/03/22 03:08:07;;;;;;;;;;;;;;;;;;5076212;28;20368;-74
2022/03/22 03:10:35;;;;;;;;;;;;;;;;;;5075714;28;19925;-74
2022/03/22 03:13:05;;;;;;;;;;;;;;;;;;5076412;28;20280;-71
2022/03/22 03:15:33;;;;;;;;;;;;;;;;;;5075816;28;19974;-75
2022/03/22 03:18:02;;;;;;;;;;;;;;;;;;5074783;28;19932;-71
2022/03/22 03:20:31;;;;;;;;;;;;;;;;;;5076393;28;20474;-71
2022/03/22 03:22:59;;;;;;;;;;;;;;;;;;5075923;28;20495;-71
2022/03/22 03:25:26;;;;;;;;;;;;;;;;;;5075671;28;20420;-73
2022/03/22 03:27:54;;;;;;;4.35;4.15;;;;;;;;;;5075110;28;20302;-74
2022/03/22 03:30:22;;;;;;;;;;;;;;;;;;5075508;28;20104;-73
2022/03/22 03:32:52;;;;;;;;;;;;;;;;;;5075771;28;20072;-73
2022/03/22 03:35:20;;;;;;;;;;;;;;;;;;5075743;28;20421;-74
2022/03/22 03:37:48;;;;;;;;;;;;;;;;;;5075669;28;19969;-71
2022/03/22 03:40:16;;;;;;;;;;;;;;;;;;5075528;28;20474;-71
2022/03/22 03:42:47;;;;;;;;;;;;;;;;;;5076076;28;19945;-71
2022/03/22 03:48:08;;;;;;;;;;;;;;;;;;5074194;28;19924;-71
2022/03/22 03:50:35;;;;;;;;;;;;;;;;;;5075231;28;20442;-74
2022/03/22 03:53:03;;;;;;;;;;;;;;;;;;5075037;28;19968;-74
2022/03/22 03:55:30;;;;;;;;;;;;;;;;;;5075433;28;19964;-73
2022/03/22 03:57:57;;;;;;;;;;;;;;;;;;5075489;28;20431;-75
2022/03/22 04:00:27;;;;;;;;;;;;;;;;;;5075679;28;20307;-74
2022/03/22 04:02:54;;;;;;;;;;;;;;;;;;5080999;28;19924;-72
2022/03/22 04:05:22;;;;;;;;;;;;;;;;;;5094428;28;19967;-72
2022/03/22 04:07:49;;;;;;;;;;;;;;;;;;5095566;28;20014;-72
2022/03/22 04:10:18;;;;;;;;;;;;;;;;;;5094765;28;20354;-74
2022/03/22 04:12:47;;;;;;;;;;;;;;;;;;5084892;28;20287;-74
2022/03/22 04:15:14;;;;;;;;;;;;;;;;;;5074752;28;19932;-71
2022/03/22 04:17:42;;;;;;;;;;;;;;;;;;5074801;28;19924;-72
2022/03/22 04:20:09;;;;;;;;;;;;;;;;;;5075210;28;19990;-71
2022/03/22 04:22:37;;;;;;;;;;;;;;;;;;5074950;28;19970;-74
2022/03/22 04:25:05;;;;;;;;;;;;;;;;;;5075474;28;19973;-72
2022/03/22 04:33:04;;;;;;;;;;;;;;;;;;5054457;28;20478;-74
2022/03/22 04:35:32;;;;;;;;;;;;;;;;;;5054434;28;20434;-74
2022/03/22 04:38:00;;;;;;;37.43;34.23;;;;;;;;;;5054075;28;20470;-71
2022/03/22 04:40:28;;;;;;;;;;;;;;;;;;5053218;28;20319;-72
2022/03/22 04:42:55;;;;;;;;;;;;;;;;;;5054698;28;20337;-72
2022/03/22 04:45:24;;;;;;;;;;;;;;;;;;5053075;28;19934;-74
2022/03/22 04:47:52;;;;;;;;;;;;;;;;;;5051223;28;32162;-73
2022/03/22 04:50:20;;;;;;;;;;;;;;;;;;5054689;28;19947;-74
2022/03/22 04:58:18;;;;;;;;;;;;;;;;;;5054440;28;20397;-71
2022/03/22 05:00:46;;;;;;;;;;;;;;;;;;5058761;28;19944;-71
2022/03/22 05:03:14;;;;;;;;;;;;;;;;;;5067878;28;19970;-71
2022/03/22 05:08:28;;;;;;;;;;;;;;;;;;5073540;28;20532;-73
2022/03/22 05:10:55;;;;;;;;;;;;;;;;;;5073906;28;20041;-75
2022/03/22 05:13:31;;;;;;;;;;;;;;;;;;5064729;28;19997;-72
2022/03/22 05:15:59;;;;;;;;;;;;;;;;;;5053412;28;19921;-75
2022/03/22 05:18:26;;;;;;;;;;;;;;;;;;5054069;28;19927;-74
2022/03/22 05:20:54;;;;;;;;;;;;;;;;;;5054095;28;20383;-72
2022/03/22 05:23:21;;;;;;;;;;;;;;;;;;5052099;28;20478;-71
2022/03/22 05:25:49;;;;;;;;;;;;;;;;;;5052979;28;30079;-72
2022/03/22 05:28:16;;;;;;;;;;;;;;;;;;5052919;28;19940;-72
2022/03/22 05:30:51;;;;;;;;;;;;;;;;;;5049793;28;19986;-71
2022/03/22 05:33:18;;;;;;;;;;;;;;;;;;5045423;28;20309;-72
2022/03/22 05:35:46;;;;;;;;;;;;;;;;;;5052876;28;20835;-71
2022/03/22 05:38:13;;;;;;;;;;;;;;;;;;5053369;28;19969;-74
2022/03/22 05:40:40;;;;;;;;;;;;;;;;;;5052809;28;19925;-72
2022/03/22 05:43:09;;;;;;;;;;;;;;;;;;5053948;28;19967;-72
2022/03/22 05:45:44;;;;;;;;;;;;;;;;;;5058095;28;20466;-72
2022/03/22 05:48:11;;;;;;;;;;;;;;;;;;5073434;28;19924;-74
2022/03/22 05:50:39;;;;;;;;;;;;;;;;;;5071819;28;19920;-75
2022/03/22 05:53:07;;;;;;;;;;;;;;;;;;5073118;28;19921;-72
2022/03/22 05:55:37;;;;;;;;;;;;;;;;;;5071578;28;20271;-74
2022/03/22 05:58:04;;;;;;;;;;;;;;;;;;5068133;28;20465;-75
2022/03/22 06:00:31;;;;;;;;;;;;;;;;;;5065506;28;20501;-75
2022/03/22 06:03:00;;;;;;;;;;;;;;;;;;5070442;28;19995;-71
2022/03/22 06:05:28;;;;;;;;;;;;;;;;;;5067954;28;19921;-74
2022/03/22 06:07:57;;;;;;;;;;;;;;;;;;5071938;28;19921;-72
2022/03/22 06:10:24;;;;;;;;;;;;;;;;;;5072294;28;19935;-75
2022/03/22 06:12:52;;;;;;;;;;;;;;;;;;5067726;28;19928;-72
2022/03/22 06:15:19;;;;;;;;;;;;;;;;;;5070444;28;19924;-74
2022/03/22 06:17:47;;;;;;;;;;;;;;;;;;5073323;28;20415;-74
2022/03/22 06:20:14;;;;;;;;;;;;;;;;;;5062444;28;20016;-75
2022/03/22 06:22:41;;;;;;;;;;;;;;;;;;5053384;28;20437;-71
2022/03/22 06:25:09;;;;;;;;;;;;;;;;;;5052658;28;19929;-73
2022/03/22 06:27:37;;;;;;;;;;;;;;;;;;5051409;28;20295;-73
2022/03/22 06:30:07;;;;;;;;;;;;;;;;;;5054902;28;20004;-71
2022/03/22 06:32:35;;;;;;;;;;;;;;;;;;5060555;28;19921;-73
2022/03/22 06:35:08;;;;;;;;;;;;;;;;;;5070325;28;19967;-71
2022/03/22 06:37:38;;;;;;;;;;;;;;;;;;5077688;28;20011;-75
2022/03/22 06:40:05;;;;;;;;;;;;;;;;;;5095578;28;19920;-76
2022/03/22 06:42:38;;;;;;;;;;;;;;;;;;5055645;28;19986;-74
2022/03/22 06:45:05;;;;;;;;;;;;;;;;;;5057699;28;19927;-72
2022/03/22 06:47:33;;;;;;;;;;;;;;;;;;5068160;28;20081;-73
2022/03/22 06:50:01;;;;;;;;;;;;;;;;;;5064053;28;19993;-72
2022/03/22 06:52:28;;;;;;;;;;;;;;;;;;5076218;28;19993;-75
2022/03/22 06:54:58;;;;;;;;;;;;;;;;;;5076824;28;20024;-75
2022/03/22 06:57:28;;;;;;;;;;;;;;;;;;5078438;28;20503;-76
2022/03/22 06:59:56;;;;;;;;;;;;;;;;;;5084054;28;20497;-72
2022/03/22 07:02:23;;;;;;;;;;;;;;;;;;5095895;28;20394;-72
2022/03/22 07:04:51;;;;;;;;;;;;;;;;;;5096757;28;20041;-76
2022/03/22 07:07:19;;;;;;;;;;;;;;;;;;5092379;28;20427;-72
2022/03/22 07:09:47;;;;;;;;;;;;;;;;;;5095476;28;20367;-73
2022/03/22 07:12:14;;;;;;;;;;;;;;;;;;5063520;22;20330;-75
2022/03/22 07:14:46;;;;;;;;;;;;;;;;;;5036206;28;20334;-72
2022/03/22 07:17:13;;;;;;;;;;;;;;;;;;5035701;28;19952;-74
2022/03/22 07:19:44;;;;;;;;;;;;;;;;;;5035632;28;19925;-72
2022/03/22 07:22:11;;;;;;;;;;;;;;;;;;5035593;28;20441;-74
2022/03/22 07:24:40;;;;;;;;;;;;;;;;;;5035959;28;20096;-71
2022/03/22 07:27:08;;;;;;;;;;;;;;;;;;5035682;28;20048;-72
2022/03/22 07:29:35;;;;;;;;;;;;;;;;;;5036040;28;20001;-72
2022/03/22 07:32:03;;;;;;;;;;;;;;;;;;5036073;28;20088;-72
2022/03/22 07:34:31;;;;;;;;;;;;;;;;;;5036753;28;19998;-73
2022/03/22 07:36:58;;;;;;;;;;;;;;;;;;5035469;28;19941;-72
2022/03/22 07:39:29;;;;;;;;;;;;;;;;;;5034345;28;19940;-74
2022/03/22 07:41:57;;;;;;;;;;;;;;;;;;5036164;28;20476;-73
2022/03/22 07:44:24;;;;;;;;;;;;;;;;;;5032391;28;20447;-74
2022/03/22 07:46:53;;;;;;;;;;;;;;;;;;5035630;28;19928;-72
2022/03/22 07:54:52;;;;;;;;;;;;;;;;;;5035876;28;20001;-73
2022/03/22 07:57:21;;;;;;;;;;;;;;;;;;5035442;28;20246;-75
2022/03/22 07:59:49;;;;;;;;;;;;;;;;;;5035267;28;20310;-72
2022/03/22 08:02:17;;;;;;;;;;;;;;;;;;5035285;28;19953;-74
2022/03/22 08:04:49;;;;;;;;;;;;;;;;;;5031468;28;19957;-72
2022/03/22 08:07:17;;;;;;;;;;;;;;;;;;5035050;28;20004;-73
2022/03/22 08:09:45;;;;;;;;;;;;;;;;;;5035276;28;20273;-73
2022/03/22 08:12:13;;;;;;;;;;;;;;;;;;5035383;28;20264;-71
2022/03/22 08:14:40;;;;;;;;;;;;;;;;;;5034962;28;20372;-71
2022/03/22 08:17:08;;;;;;;;;;;;;;;;;;5034541;28;19927;-72
2022/03/22 08:19:36;;;;;;;;;;;;;;;;;;5034585;28;19925;-73
2022/03/22 08:22:05;;;;;;;;;;;;;;;;;;5034607;28;19925;-72
2022/03/22 08:24:33;;;;;;;;;;;;;;;;;;5033854;28;19968;-72
2022/03/22 08:27:00;;;;;;;;;;;;;;;;;;5034482;28;19936;-74
2022/03/22 08:29:30;;;;;;;;;;;;;;;;;;5034072;28;19968;-72
2022/03/22 08:31:58;;;;;;;;;;;;;;;;;;5031329;28;20445;-72
2022/03/22 08:34:27;;;;;;;;;;;;;;;;;;5034035;28;20477;-71
2022/03/22 08:36:55;;;;;;;;;;;;;;;;;;5033384;28;20006;-73
2022/03/22 08:39:26;;;;;;;8.80;8.30;;;;;;;;;;5033611;28;20025;-72
2022/03/22 08:41:53;;;;;;;;;;;;;;;;;;5034099;28;20286;-71
2022/03/22 08:44:23;;;;;;;;;;;;;;;;;;5033986;28;20102;-71
2022/03/22 08:46:51;;;;;;;;;;;;;;;;;;5034255;28;20329;-71
2022/03/22 08:49:21;;;;;;;;;;;;;;;;;;5034247;28;20378;-74
2022/03/22 08:52:02;;;;;;;;;;;;;;;;;;5029884;28;19921;-71
2022/03/22 08:54:30;;;;;;;;;;;;;;;;;;5033862;28;19920;-72
2022/03/22 08:56:57;;;;;;;;;;;;;;;;;;5033850;28;19928;-73
2022/03/22 08:59:32;;;;;;;;;;;;;;;;;;5033157;28;19921;-72
2022/03/22 09:01:59;;;;;;;;;;;;;;;;;;5034217;28;19944;-72
2022/03/22 09:07:14;;;;;;;;;;;;;;;;;;5034091;28;20273;-73
2022/03/22 09:09:41;;;;;;;;;;;;;;;;;;5034246;28;20020;-73
2022/03/22 09:12:08;;;;;;;;;;;;;;;;;;5031740;28;19925;-72
2022/03/22 09:14:36;;;;;;;;;;;;;;;;;;5033058;28;19921;-73
2022/03/22 09:17:10;;;;;;;;;;;;;;;;;;5030373;28;19971;-72
2022/03/22 09:19:39;;;;;;;;;;;;;;;;;;5033499;28;20402;-71
2022/03/22 09:22:24;;;;;;;;;;;;;;;;;;5032714;28;19921;-75
2022/03/22 09:24:51;;;;;;;;;;;;;;;;;;5031103;28;19934;-74
2022/03/22 09:27:19;;;;;;;;;;;;;;;;;;5033499;28;19955;-71
2022/03/22 09:29:49;;;;;;;;;;;;;;;;;;5033551;28;20023;-75
2022/03/22 09:32:16;;;;;;;;;;;;;;;;;;5049150;28;19939;-72
2022/03/22 09:35:00;;;;;;;;;;;;;;;;;;5034045;28;20015;-73
2022/03/22 09:37:28;;;;;;;;;;;;;;;;;;5032517;28;20017;-72
2022/03/22 09:39:58;;;;;;;;;;;;;;;;;;5033298;28;19994;-74
2022/03/22 09:42:27;;;;;;;;;;;;;;;;;;5032617;28;19997;-73
2022/03/22 09:44:55;;;;;;;;;;;;;;;;;;5030972;28;20000;-71
2022/03/22 09:47:22;;;;;;;;;;;;;;;;;;5032582;28;20117;-71
2022/03/22 09:49:50;;;;;;;;;;;;;;;;;;5031795;28;19927;-72
2022/03/22 09:52:17;;;;;;;;;;;;;;;;;;5032679;28;19927;-71
2022/03/22 09:54:46;;;;;;;;;;;;;;;;;;5031868;28;20011;-73
2022/03/22 09:57:13;;;;;;;;;;;;;;;;;;5031654;28;20341;-71
2022/03/22 09:59:41;;;;;;;;;;;;;;;;;;5033055;28;19921;-73
2022/03/22 10:02:10;;;;;;;;;;;;;;;;;;5033017;28;19921;-74
2022/03/22 10:04:38;;;;;;;;;;;;;;;;;;5030014;28;19921;-74
2022/03/22 10:07:06;;;;;;;;;;;;;;;;;;5031836;28;20019;-72
2022/03/22 10:09:36;;;;;;;;;;;;;;;;;;5032532;28;20290;-71
2022/03/22 10:12:03;;;;;;;;;;;;;;;;;;5031221;28;20108;-73
2022/03/22 10:14:38;;;;;;;;;;;;;;;;;;5030363;28;20338;-73
2022/03/22 10:17:07;;;;;;;;;;;;;;;;;;5032392;28;19964;-71
2022/03/22 10:19:35;;;;;;;;;;;;;;;;;;5032740;28;19952;-72
2022/03/22 10:22:02;;;;;;;;;;;;;;;;;;5032514;28;19921;-72
2022/03/22 10:24:33;;;;;;;;;;;;;;;;;;5032619;28;19928;-73
2022/03/22 10:27:01;;;;;;;;;;;;;;;;;;5032833;28;20341;-74
2022/03/22 10:29:30;;;;;;;;;;;;;;;;;;5032260;28;20016;-70
2022/03/22 10:31:58;;;;;;;;;;;;;;;;;;5029644;28;19992;-73
2022/03/22 10:34:31;;;;;;;;;;;;;;;;;;5029552;28;20451;-73
2022/03/22 10:37:00;;;;;;;;;;;;;;;;;;5016453;28;24630;-71
2022/03/22 10:39:27;;;;;;;;;;;;;;;;;;5028724;28;20007;-70
2022/03/22 10:41:55;;;;;;;;;;;;;;;;;;5032453;28;19995;-70
2022/03/22 10:44:23;;;;;;;;;;;;;;;;;;5032171;28;19997;-71
2022/03/22 10:46:53;;;;;;;;;;;;;;;;;;5032189;28;20509;-73
2022/03/22 10:49:21;;;;;;;;;;;;;;;;;;5032275;28;20048;-73
2022/03/22 10:52:09;;;;;;;;;;;;;;;;;;5031411;28;20411;-70
2022/03/22 10:54:36;;;;;;;;;;;;;;;;;;5031923;28;20024;-72
2022/03/22 10:57:04;;;;;;;;;;;;;;;;;;5032233;28;20049;-70
2022/03/22 10:59:32;;;;;;;;;;;;;;;;;;5032487;28;20005;-70
2022/03/22 11:01:59;;;;;;;;;;;;;;;;;;5031175;28;20046;-75
2022/03/22 11:04:31;;;;;;;;;;;;;;;;;;5012832;28;20018;-75
2022/03/22 11:07:02;;;;;;;;;;;;;;;;;;5012693;28;20375;-75
2022/03/22 11:09:32;;;;;;;;;;;;;;;;;;5012650;28;19945;-71
2022/03/22 11:12:01;;;;;;;;;;;;;;;;;;5012311;28;20027;-74
2022/03/22 11:14:30;;;;;;;;;;;;;;;;;;5012378;28;20031;-74
2022/03/22 11:16:57;;;;;;;;;;;;;;;;;;5012090;28;20427;-75
2022/03/22 11:19:25;;;;;;;;;;;;;;;;;;5012552;28;20000;-71
2022/03/22 11:21:52;;;;;;;;;;;;;;;;;;5014036;28;20006;-75
2022/03/22 11:24:20;;;;;;;;;;;;;;;;;;5015804;28;20091;-75
2022/03/22 11:26:47;;;;;;;;;;;;;;;;;;5015214;28;20003;-75
2022/03/22 11:29:17;;;;;;;;;;;;;;;;;;5015662;28;20092;-71
2022/03/22 11:34:08;;;;;;;;;;;;;;;;;;5015842;28;19925;-74
2022/03/22 11:34:33;;;;;;;;;;;;;;;;;;5015904;28;19928;-71
2022/03/22 11:37:01;;;;;;;;;;;;;;;;;;5014497;28;20030;-71
2022/03/22 11:42:21;;;;;;;;;;;;;;;;;;5015784;28;20003;-74
2022/03/22 11:44:49;;;;;;;;;;;;;;;;;;5015840;28;19996;-74
2022/03/22 11:47:17;;;;;;;;;;;;;;;;;;5015695;28;20023;-72
2022/03/22 11:49:45;;;;;;;;;;;;;;;;;;5015412;28;20004;-74
2022/03/22 11:52:12;;;;;;;;;;;;;;;;;;5015488;28;20444;-71
2022/03/22 11:54:40;;;;;;;;;;;;;;;;;;5015485;28;20467;-71
2022/03/22 11:57:07;;;;;;;;;;;;;;;;;;5015296;28;20012;-71
2022/03/22 11:59:34;;;;;;;;;;;;;;;;;;5015271;28;20025;-71
2022/03/22 12:02:02;;;;;;;;;;;;;;;;;;5015331;28;20087;-74
2022/03/22 12:04:31;;;;;;;;;;;;;;;;;;5013870;28;20048;-71
2022/03/22 12:07:01;;;;;;;;;;;;;;;;;;5015429;28;19996;-71
2022/03/22 12:09:31;;;;;;;;;;;;;;;;;;5013960;28;20249;-74
2022/03/22 12:12:00;;;;;;;;;;;;;;;;;;5014868;28;19925;-74
2022/03/22 12:14:28;;;;;;;;;;;;;;;;;;5015213;28;20106;-75
2022/03/22 12:16:56;;;;;;;;;;;;;;;;;;5014424;28;20007;-74
2022/03/22 12:19:24;;;;;;;;;;;;;;;;;;5015114;28;20020;-75
2022/03/22 12:21:52;;;;;;;;;;;;;;;;;;5013799;28;20006;-71
2022/03/22 12:24:21;;;;;;;;;;;;;;;;;;5015006;28;20519;-71
2022/03/22 12:26:49;;;;;;;;;;;;;;;;;;5014978;28;20051;-73
2022/03/22 12:29:16;;;;;;;;;;;;;;;;;;5014874;28;20462;-71
2022/03/22 12:31:45;;;;;;;;;;;;;;;;;;5014898;28;20024;-71
2022/03/22 12:34:16;;;;;;;;;;;;;;;;;;5014825;28;25081;-74
2022/03/22 12:36:45;;;;;;;;;;;;;;;;;;5031868;28;20016;-74
2022/03/22 12:39:13;;;;;;;;;;;;;;;;;;5031541;28;20009;-74
2022/03/22 12:41:40;;;;;;;;;;;;;;;;;;5032825;28;20001;-71
2022/03/22 12:44:11;;;;;;;;;;;;;;;;;;5033033;28;20007;-74
2022/03/22 12:46:39;;;;;;;;;;;;;;;;;;5034153;28;20379;-71
2022/03/22 12:49:07;;;;;;;;;;;;;;;;;;5034044;28;20012;-71
2022/03/22 12:51:36;;;;;;;;;;;;;;;;;;5034204;28;20012;-71
2022/03/22 12:54:03;;;;;;;;;;;;;;;;;;5031582;28;20156;-71
2022/03/22 12:56:31;;;;;;;;;;;;;;;;;;5033951;28;19925;-74
2022/03/22 12:59:21;;;;;;;;;;;;;;;;;;5033618;28;19925;-75
2022/03/22 13:01:50;;;;;;;;;;;;;;;;;;5033339;28;20034;-74
2022/03/22 13:04:18;;;;;;;;;;;;;;;;;;5033351;28;20007;-75
2022/03/22 13:06:45;;;;;;;;;;;;;;;;;;5033605;28;20000;-72
2022/03/22 13:12:03;;;;;;;;;;;;;;;;;;5033206;28;20024;-74
2022/03/22 13:17:19;;;;;;;;;;;;;;;;;;5017419;28;20041;-71
2022/03/22 13:19:47;;;;;;;;;;;;;;;;;;5028171;28;20042;-74
2022/03/22 13:22:14;;;;;;;;;;;;;;;;;;5030333;28;20002;-71
2022/03/22 13:24:44;;;;;;;;;;;;;;;;;;5022871;28;20372;-75
2022/03/22 13:27:17;;;;;;;;;;;;;;;;;;5027110;28;20471;-75
2022/03/22 13:29:45;;;;;;;;;;;;;;;;;;5030801;28;19943;-74
2022/03/22 13:32:13;;;;;;;;;;;;;;;;;;5023934;28;19980;-75
2022/03/22 13:34:50;;;;;;;;;;;;;;;;;;5024993;28;19933;-74
2022/03/22 13:37:18;;;;;;;;;;;;;;;;;;5025012;28;19940;-71
2022/03/22 13:39:47;;;;;;;;;;;;;;;;;;5029254;28;19936;-74
2022/03/22 13:42:15;;;;;;;;;;;;;;;;;;5026690;28;19947;-74
2022/03/22 13:44:42;;;;;;;;;;;;;;;;;;5021965;28;19925;-72
2022/03/22 13:47:10;;;;;;;;;;;;;;;;;;5026649;28;20027;-75
2022/03/22 13:49:40;;;;;;;;;;;;;;;;;;5023478;28;20069;-75
2022/03/22 13:52:10;;;;;;;;;;;;;;;;;;5019045;28;20059;-71
2022/03/22 13:54:39;;;;;;;;;;;;;;;;;;5030905;28;20455;-75
2022/03/22 13:57:06;;;;;;;;;;;;;;;;;;5031303;28;19933;-76
2022/03/22 13:59:36;;;;;;;;;;;;;;;;;;5024889;28;20012;-74
2022/03/22 14:02:05;;;;;;;;;;;;;;;;;;5020079;28;20012;-75
2022/03/22 14:04:34;;;;;;;;;;;;;;;;;;5022266;28;20099;-75
2022/03/22 14:07:04;;;;;;;;;;;;;;;;;;5025783;28;19931;-71
2022/03/22 14:09:32;;;;;;;;;;;;;;;;;;5020351;28;20066;-72
2022/03/22 14:12:03;;;;;;;;;;;;;;;;;;5023309;28;20025;-75
2022/03/22 14:14:32;;;;;;;;;;;;;;;;;;5031381;28;19932;-73
2022/03/22 14:17:00;;;;;;;;;;;;;;;;;;5031698;28;19925;-74
2022/03/22 14:19:32;;;;;;;;;;;;;;;;;;5031509;28;19933;-71
2022/03/22 14:22:02;;;;;;;;;;;;;;;;;;5031948;28;20392;-71
2022/03/22 14:24:31;;;;;;;;;;;;;;;;;;5031728;28;19983;-74
2022/03/22 14:26:58;;;;;;;;;;;;;;;;;;5030904;28;19925;-74
2022/03/22 14:29:27;;;;;;;;;;;;;;;;;;5029169;28;20450;-75
2022/03/22 14:31:55;;;;;;;;;;;;;;;;;;5031908;28;20005;-71
2022/03/22 14:37:12;;;;;;;;;;;;;;;;;;5029840;28;20031;-75
2022/03/22 14:39:40;;;;;;;;;;;;;;;;;;5032012;28;20048;-75
2022/03/22 14:42:10;;;;;;;;;;;;;;;;;;5031364;28;20032;-73
2022/03/22 14:44:43;;;;;;;;;;;;;;;;;;5026865;28;20032;-71
2022/03/22 14:47:13;;;;;;;;;;;;;;;;;;5027863;28;20035;-71
2022/03/22 14:49:41;;;;;;;;;;;;;;;;;;5027509;28;20135;-71
2022/03/22 14:54:56;;;;;;;;;;;;;;;;;;5028616;28;20118;-70
2022/03/22 15:00:10;;;;;;;;;;;;;;;;;;5032299;28;20079;-71
2022/03/22 15:02:40;;;;;;;;;;;;;;;;;;5030752;28;20368;-69
2022/03/22 15:05:31;;;;;;;;;;;;;;;;;;5032927;28;20017;-69
2022/03/22 15:07:55;;;;;;;;;;;;;;;;;;5031622;28;20375;-72
2022/03/22 15:10:23;;;;;;;;;;;;;;;;;;5036305;28;19958;-69
2022/03/22 15:12:50;;;;;;;;;;;;;;;;;;5035910;28;19961;-71
2022/03/22 15:15:18;;;;;;;;;;;;;;;;;;5034987;28;19964;-71
2022/03/22 15:17:46;;;;;;;;;;;;;;;;;;5035797;28;19964;-69
2022/03/22 15:20:14;;;;;;;;;;;;;;;;;;5033656;28;19966;-71
2022/03/22 15:22:42;;;;;;;;;;;;;;;;;;5036228;28;20049;-73
2022/03/22 15:25:09;;;;;;;;;;;;;;;;;;5034712;28;20422;-73
2022/03/22 15:27:36;;;;;;;;;;;;;;;;;;5036086;28;20042;-69
2022/03/22 15:30:05;;;;;;;;;;;;;;;;;;5034900;28;20022;-71
2022/03/22 15:32:33;;;;;;;;;;;;;;;;;;5035559;28;20400;-71
2022/03/22 15:35:02;;;;;;;;;;;;;;;;;;5035711;28;20511;-69
2022/03/22 15:37:30;;;;;;;;;;;;;;;;;;5035752;28;20167;-72
2022/03/22 15:40:02;;;;;;;;;;;;;;;;;;5034346;28;20025;-72
2022/03/22 15:42:30;;;;;;;;;;;;;;;;;;5035816;28;20103;-69
2022/03/22 15:44:57;;;;;;;;;;;;;;;;;;5035417;28;20377;-72
2022/03/22 15:47:25;;;;;;;;;;;;;;;;;;5035262;28;20006;-69
2022/03/22 15:49:55;;;;;;;;;;;;;;;;;;5035579;28;20022;-69
2022/03/22 15:52:30;;;;;;;;;;;;;;;;;;5035567;28;20533;-72
2022/03/22 15:55:02;;;;;;;;;;;;;;;;;;5035963;28;20062;-69
2022/03/22 15:57:32;;;;;;;;;;;;;;;;;;5036077;28;20036;-71
2022/03/22 15:59:59;;;;;;;;;;;;;;;;;;5035910;28;20373;-72
2022/03/22 16:02:27;;;;;;;;;;;;;;;;;;5035918;28;20029;-72
2022/03/22 16:04:56;;;;;;;;;;;;;;;;;;5035178;28;20088;-73
2022/03/22 16:07:24;;;;;;;;;;;;;;;;;;5033776;28;20043;-71
2022/03/22 16:09:52;;;;;;;;;;;;;;;;;;5034817;28;20037;-71
2022/03/22 16:12:20;;;;;;;;;;;;;;;;;;5023727;28;20439;-71
2022/03/22 16:14:50;;;;;;;;;;;;;;;;;;5024798;28;19931;-69
2022/03/22 16:17:18;;;;;;;;;;;;;;;;;;5015193;28;19997;-71
2022/03/22 16:19:46;;;;;;;;;;;;;;;;;;5027388;28;19972;-71
2022/03/22 16:22:14;;;;;;;;;;;;;;;;;;5018235;28;20373;-69
2022/03/22 16:24:44;;;;;;;;;;;;;;;;;;5027105;28;20028;-69
2022/03/22 16:27:11;;;;;;;;;;;;;;;;;;5019506;28;20023;-73
2022/03/22 16:29:53;;;;;;;;;;;;;;;;;;5019075;28;20037;-70
2022/03/22 16:36:45;;;;;;;;;;;;;;;;;;5028715;28;20477;-70
2022/03/22 16:38:01;;;;;;;;;;;;;;;;;;5026913;28;20027;-70
2022/03/22 16:40:28;;;;;;;;;;;;;;;;;;5025230;28;20047;-70
2022/03/22 16:42:58;;;;;;;;;;;;;;;;;;5027770;28;20030;-72
2022/03/22 16:45:29;;;;;;;;;;;;;;;;;;5042332;28;20469;-72
2022/03/22 16:47:57;;;;;;;;;;;;;;;;;;5033038;28;20414;-72
2022/03/22 16:50:25;;;;;;;;;;;;;;;;;;5024433;28;20002;-73
2022/03/22 16:52:53;;;;;;;;;;;;;;;;;;5018122;28;21441;-69
2022/03/22 16:55:25;;;;;;;;;;;;;;;;;;5028356;28;20000;-70
2022/03/22 16:57:54;;;;;;;;;;;;;;;;;;5022548;28;20009;-69
2022/03/22 17:00:23;;;;;;;;;;;;;;;;;;5017549;28;20400;-69
2022/03/22 17:02:51;;;;;;;;;;;;;;;;;;5014868;28;20006;-71
2022/03/22 17:05:22;;;;;;;;;;;;;;;;;;5014725;28;20443;-72
2022/03/22 17:07:52;;;;;;;;;;;;;;;;;;5014480;28;20066;-68
2022/03/22 17:10:20;;;;;;;;;;;;;;;;;;5026904;28;20000;-72
2022/03/22 17:12:47;;;;;;;;;;;;;;;;;;5033726;28;20025;-72
2022/03/22 17:15:16;;;;;;;;;;;;;;;;;;5033958;28;20523;-73
2022/03/22 17:17:45;;;;;;;;;;;;;;;;;;5033268;28;20012;-72
2022/03/22 17:20:16;;;;;;;;;;;;;;;;;;5032954;28;20029;-70
2022/03/22 17:22:51;;;;;;;;;;;;;;;;;;5034124;28;19999;-70
2022/03/22 17:25:21;;;;;;;;;;;;;;;;;;5032146;28;20442;-74
2022/03/22 17:27:48;;;;;;;;;;;;;;;;;;5033213;28;20016;-70
2022/03/22 17:30:16;;;;;;;;;;;;;;;;;;5032071;28;20049;-74
2022/03/22 17:32:50;;;;;;;;;;;;;;;;;;5033048;28;20363;-72
2022/03/22 17:35:31;;;;;;;;;;;;;;;;;;5026401;28;20012;-74
2022/03/22 17:37:59;;;;;;;;;;;;;;;;;;5029500;28;25084;-75
2022/03/22 17:40:27;;;;;;;;;;;;;;;;;;5032731;28;19990;-73
2022/03/22 17:42:54;;;;;;;;;;;;;;;;;;5029879;28;20368;-74